sensor_id;sensor_type;location;lat;lon;timestamp;pressure;altitude;pressure_sealevel;temperature;humidity
46015;BME280;36844;51.898;-0.874;2023-02-20T00:01:59;101396.78;;;19.05;
46015;BME280;36844;51.898;-0.874;2023-02-20T00:04:25;101401.78;;;19.03;
46015;BME280;36844;51.898;-0.874;2023-02-20T00:06:50;101402.16;;;19.02;
46015;BME280;36844;51.898;-0.874;2023-02-20T00:09:15;101392.88;;;18.99;
46015;BME280;36844;51.898;-0.874;2023-02-20T00:11:40;101393.28;;;18.98;
46015;BME280;36844;51.898;-0.874;2023-02-20T00:14:06;101384.78;;;18.96;
46015;BME280;36844;51.898;-0.874;2023-02-20T00:16:31;101389.78;;;18.94;
46015;BME280;36844;51.898;-0.874;2023-02-20T00:18:56;101382.84;;;18.93;
46015;BME280;36844;51.898;-0.874;2023-02-20T00:21:22;101381.66;;;18.90;
46015;BME280;36844;51.898;-0.874;2023-02-20T00:23:47;101388.22;;;18.89;
46015;BME280;36844;51.898;-0.874;2023-02-20T00:26:13;101389.38;;;18.88;
46015;BME280;36844;51.898;-0.874;2023-02-20T00:28:39;101384.34;;;18.87;
46015;BME280;36844;51.898;-0.874;2023-02-20T00:31:06;101381.25;;;18.85;
46015;BME280;36844;51.898;-0.874;2023-02-20T00:33:31;101371.97;;;18.82;
46015;BME280;36844;51.898;-0.874;2023-02-20T00:35:56;101374.28;;;18.80;
46015;BME280;36844;51.898;-0.874;2023-02-20T00:38:22;101372.72;;;18.79;
46015;BME280;36844;51.898;-0.874;2023-02-20T00:40:47;101375.06;;;18.77;
46015;BME280;36844;51.898;-0.874;2023-02-20T00:43:12;101360.34;;;18.74;
46015;BME280;36844;51.898;-0.874;2023-02-20T00:45:37;101359.97;;;18.72;
46015;BME280;36844;51.898;-0.874;2023-02-20T00:48:03;101359.19;;;18.72;
46015;BME280;36844;51.898;-0.874;2023-02-20T00:50:28;101355.34;;;18.69;
46015;BME280;36844;51.898;-0.874;2023-02-20T00:52:53;101355.72;;;18.68;
46015;BME280;36844;51.898;-0.874;2023-02-20T00:55:20;101335.66;;;18.65;
46015;BME280;36844;51.898;-0.874;2023-02-20T00:57:45;101340.28;;;18.65;
46015;BME280;36844;51.898;-0.874;2023-02-20T01:00:17;101341.41;;;18.64;
46015;BME280;36844;51.898;-0.874;2023-02-20T01:02:42;101331.03;;;18.62;
46015;BME280;36844;51.898;-0.874;2023-02-20T01:05:07;101334.09;;;18.61;
46015;BME280;36844;51.898;-0.874;2023-02-20T01:07:33;101329.06;;;18.59;
46015;BME280;36844;51.898;-0.874;2023-02-20T01:09:58;101329.47;;;18.58;
46015;BME280;36844;51.898;-0.874;2023-02-20T01:12:23;101326.34;;;18.56;
46015;BME280;36844;51.898;-0.874;2023-02-20T01:14:48;101325.97;;;18.54;
46015;BME280;36844;51.898;-0.874;2023-02-20T01:17:13;101327.88;;;18.53;
46015;BME280;36844;51.898;-0.874;2023-02-20T01:19:39;101320.16;;;18.52;
46015;BME280;36844;51.898;-0.874;2023-02-20T01:22:04;101313.97;;;18.51;
46015;BME280;36844;51.898;-0.874;2023-02-20T01:24:32;101310.13;;;18.49;
46015;BME280;36844;51.898;-0.874;2023-02-20T01:26:57;101314.34;;;18.46;
46015;BME280;36844;51.898;-0.874;2023-02-20T01:29:23;101316.25;;;18.46;
46015;BME280;36844;51.898;-0.874;2023-02-20T01:31:48;101307.78;;;18.44;
46015;BME280;36844;51.898;-0.874;2023-02-20T01:34:14;101303.53;;;18.43;
46015;BME280;36844;51.898;-0.874;2023-02-20T01:36:44;101305.84;;;18.41;
46015;BME280;36844;51.898;-0.874;2023-02-20T01:39:09;101298.88;;;18.40;
46015;BME280;36844;51.898;-0.874;2023-02-20T01:41:35;101301.22;;;18.38;
46015;BME280;36844;51.898;-0.874;2023-02-20T01:44:00;101297.72;;;18.37;
46015;BME280;36844;51.898;-0.874;2023-02-20T01:49:08;101295.81;;;18.34;
46015;BME280;36844;51.898;-0.874;2023-02-20T01:51:35;101293.44;;;18.33;
46015;BME280;36844;51.898;-0.874;2023-02-20T01:54:02;101285.00;;;18.31;
46015;BME280;36844;51.898;-0.874;2023-02-20T01:56:28;101292.31;;;18.30;
46015;BME280;36844;51.898;-0.874;2023-02-20T01:58:53;101290.75;;;18.29;
46015;BME280;36844;51.898;-0.874;2023-02-20T02:01:18;101293.84;;;18.28;
46015;BME280;36844;51.898;-0.874;2023-02-20T02:03:45;101294.19;;;18.26;
46015;BME280;36844;51.898;-0.874;2023-02-20T02:06:12;101292.63;;;18.25;
46015;BME280;36844;51.898;-0.874;2023-02-20T02:08:38;101297.66;;;18.23;
46015;BME280;36844;51.898;-0.874;2023-02-20T02:11:15;101296.88;;;18.23;
46015;BME280;36844;51.898;-0.874;2023-02-20T02:13:42;101289.91;;;18.22;
46015;BME280;36844;51.898;-0.874;2023-02-20T02:18:50;101279.88;;;18.19;
46015;BME280;36844;51.898;-0.874;2023-02-20T02:21:40;101276.78;;;18.17;
46015;BME280;36844;51.898;-0.874;2023-02-20T02:27:02;101284.47;;;18.15;
46015;BME280;36844;51.898;-0.874;2023-02-20T02:34:42;101273.69;;;18.11;
46015;BME280;36844;51.898;-0.874;2023-02-20T02:37:12;101272.53;;;18.09;
46015;BME280;36844;51.898;-0.874;2023-02-20T02:42:33;101268.66;;;18.06;
46015;BME280;36844;51.898;-0.874;2023-02-20T02:47:34;101262.84;;;18.04;
46015;BME280;36844;51.898;-0.874;2023-02-20T02:50:02;101269.03;;;18.05;
46015;BME280;36844;51.898;-0.874;2023-02-20T02:52:29;101265.91;;;18.03;
46015;BME280;36844;51.898;-0.874;2023-02-20T02:55:13;101265.16;;;18.02;
46015;BME280;36844;51.898;-0.874;2023-02-20T02:57:39;101259.34;;;18.00;
46015;BME280;36844;51.898;-0.874;2023-02-20T03:00:05;101256.66;;;18.00;
46015;BME280;36844;51.898;-0.874;2023-02-20T03:02:33;101255.88;;;18.00;
46015;BME280;36844;51.898;-0.874;2023-02-20T03:05:00;101258.16;;;17.98;
46015;BME280;36844;51.898;-0.874;2023-02-20T03:07:28;101253.94;;;17.97;
46015;BME280;36844;51.898;-0.874;2023-02-20T03:10:01;101261.25;;;17.96;
46015;BME280;36844;51.898;-0.874;2023-02-20T03:12:27;101250.84;;;17.95;
46015;BME280;36844;51.898;-0.874;2023-02-20T03:14:55;101241.97;;;17.94;
46015;BME280;36844;51.898;-0.874;2023-02-20T03:17:44;101238.88;;;17.92;
46015;BME280;36844;51.898;-0.874;2023-02-20T03:20:14;101238.88;;;17.92;
46015;BME280;36844;51.898;-0.874;2023-02-20T03:22:42;101233.88;;;17.91;
46015;BME280;36844;51.898;-0.874;2023-02-20T03:25:44;101235.78;;;17.90;
46015;BME280;36844;51.898;-0.874;2023-02-20T03:28:02;101234.25;;;17.89;
46015;BME280;36844;51.898;-0.874;2023-02-20T03:30:34;101230.00;;;17.88;
46015;BME280;36844;51.898;-0.874;2023-02-20T03:33:07;101231.16;;;17.87;
46015;BME280;36844;51.898;-0.874;2023-02-20T03:35:52;101231.53;;;17.86;
46015;BME280;36844;51.898;-0.874;2023-02-20T03:38:37;101228.44;;;17.84;
46015;BME280;36844;51.898;-0.874;2023-02-20T03:41:24;101229.56;;;17.83;
46015;BME280;36844;51.898;-0.874;2023-02-20T03:44:10;101225.34;;;17.82;
46015;BME280;36844;51.898;-0.874;2023-02-20T03:46:37;101229.94;;;17.81;
46015;BME280;36844;51.898;-0.874;2023-02-20T03:49:12;101223.81;;;17.81;
46015;BME280;36844;51.898;-0.874;2023-02-20T03:51:38;101231.13;;;17.80;
46015;BME280;36844;51.898;-0.874;2023-02-20T03:54:22;101235.31;;;17.77;
46015;BME280;36844;51.898;-0.874;2023-02-20T03:56:49;101228.75;;;17.78;
46015;BME280;36844;51.898;-0.874;2023-02-20T03:59:27;101230.31;;;17.76;
46015;BME280;36844;51.898;-0.874;2023-02-20T04:01:56;101228.75;;;17.75;
46015;BME280;36844;51.898;-0.874;2023-02-20T04:04:25;101226.44;;;17.73;
46015;BME280;36844;51.898;-0.874;2023-02-20T04:06:52;101241.84;;;17.73;
46015;BME280;36844;51.898;-0.874;2023-02-20T04:09:23;101237.22;;;17.73;
46015;BME280;36844;51.898;-0.874;2023-02-20T04:11:53;101242.97;;;17.72;
46015;BME280;36844;51.898;-0.874;2023-02-20T04:14:22;101231.78;;;17.70;
46015;BME280;36844;51.898;-0.874;2023-02-20T04:16:50;101236.44;;;17.69;
46015;BME280;36844;51.898;-0.874;2023-02-20T04:19:16;101244.50;;;17.69;
46015;BME280;36844;51.898;-0.874;2023-02-20T04:21:43;101239.47;;;17.68;
46015;BME280;36844;51.898;-0.874;2023-02-20T04:24:12;101233.31;;;17.67;
46015;BME280;36844;51.898;-0.874;2023-02-20T04:26:39;101227.13;;;17.67;
46015;BME280;36844;51.898;-0.874;2023-02-20T04:29:05;101226.38;;;17.66;
46015;BME280;36844;51.898;-0.874;2023-02-20T04:31:30;101225.97;;;17.64;
46015;BME280;36844;51.898;-0.874;2023-02-20T04:33:55;101236.75;;;17.64;
46015;BME280;36844;51.898;-0.874;2023-02-20T04:36:22;101236.34;;;17.62;
46015;BME280;36844;51.898;-0.874;2023-02-20T04:38:48;101237.88;;;17.63;
46015;BME280;36844;51.898;-0.874;2023-02-20T04:41:13;101230.97;;;17.62;
46015;BME280;36844;51.898;-0.874;2023-02-20T04:43:38;101238.66;;;17.60;
46015;BME280;36844;51.898;-0.874;2023-02-20T04:46:04;101232.47;;;17.60;
46015;BME280;36844;51.898;-0.874;2023-02-20T04:48:29;101237.88;;;17.60;
46015;BME280;36844;51.898;-0.874;2023-02-20T04:50:54;101235.56;;;17.58;
46015;BME280;36844;51.898;-0.874;2023-02-20T04:53:19;101234.78;;;17.58;
46015;BME280;36844;51.898;-0.874;2023-02-20T04:55:45;101243.22;;;17.56;
46015;BME280;36844;51.898;-0.874;2023-02-20T04:58:11;101245.91;;;17.56;
46015;BME280;36844;51.898;-0.874;2023-02-20T05:00:36;101233.56;;;17.55;
46015;BME280;36844;51.898;-0.874;2023-02-20T05:03:02;101242.84;;;17.54;
46015;BME280;36844;51.898;-0.874;2023-02-20T05:05:28;101237.47;;;17.54;
46015;BME280;36844;51.898;-0.874;2023-02-20T05:07:57;101240.50;;;17.53;
46015;BME280;36844;51.898;-0.874;2023-02-20T05:10:23;101242.41;;;17.52;
46015;BME280;36844;51.898;-0.874;2023-02-20T05:12:48;101235.47;;;17.51;
46015;BME280;36844;51.898;-0.874;2023-02-20T05:15:13;101231.25;;;17.50;
46015;BME280;36844;51.898;-0.874;2023-02-20T05:17:39;101232.41;;;17.49;
46015;BME280;36844;51.898;-0.874;2023-02-20T05:20:05;101233.97;;;17.50;
46015;BME280;36844;51.898;-0.874;2023-02-20T05:22:31;101241.59;;;17.48;
46015;BME280;36844;51.898;-0.874;2023-02-20T05:24:57;101250.09;;;17.47;
46015;BME280;36844;51.898;-0.874;2023-02-20T05:27:22;101233.16;;;17.46;
46015;BME280;36844;51.898;-0.874;2023-02-20T05:29:55;101231.59;;;17.45;
46015;BME280;36844;51.898;-0.874;2023-02-20T05:32:22;101229.25;;;17.44;
46015;BME280;36844;51.898;-0.874;2023-02-20T05:34:48;101229.25;;;17.44;
46015;BME280;36844;51.898;-0.874;2023-02-20T05:37:15;101235.03;;;17.42;
46015;BME280;36844;51.898;-0.874;2023-02-20T05:39:41;101236.16;;;17.41;
46015;BME280;36844;51.898;-0.874;2023-02-20T05:42:06;101230.00;;;17.41;
46015;BME280;36844;51.898;-0.874;2023-02-20T05:44:32;101228.47;;;17.40;
46015;BME280;36844;51.898;-0.874;2023-02-20T05:46:57;101219.63;;;17.39;
46015;BME280;36844;51.898;-0.874;2023-02-20T05:49:23;101224.22;;;17.39;
46015;BME280;36844;51.898;-0.874;2023-02-20T05:51:49;101216.50;;;17.37;
46015;BME280;36844;51.898;-0.874;2023-02-20T05:54:15;101215.72;;;17.37;
46015;BME280;36844;51.898;-0.874;2023-02-20T05:56:43;101214.22;;;17.36;
46015;BME280;36844;51.898;-0.874;2023-02-20T05:59:09;101216.13;;;17.35;
46015;BME280;36844;51.898;-0.874;2023-02-20T06:01:34;101209.19;;;17.34;
46015;BME280;36844;51.898;-0.874;2023-02-20T06:04:00;101219.94;;;17.34;
46015;BME280;36844;51.898;-0.874;2023-02-20T06:06:30;101224.56;;;17.34;
46015;BME280;36844;51.898;-0.874;2023-02-20T06:08:55;101233.00;;;17.32;
46015;BME280;36844;51.898;-0.874;2023-02-20T06:11:21;101232.25;;;17.32;
46015;BME280;36844;51.898;-0.874;2023-02-20T06:13:46;101229.91;;;17.30;
46015;BME280;36844;51.898;-0.874;2023-02-20T06:16:11;101227.22;;;17.30;
46015;BME280;36844;51.898;-0.874;2023-02-20T06:18:37;101232.59;;;17.30;
46015;BME280;36844;51.898;-0.874;2023-02-20T06:21:05;101222.19;;;17.29;
46015;BME280;36844;51.898;-0.874;2023-02-20T06:23:31;101226.84;;;17.28;
46015;BME280;36844;51.898;-0.874;2023-02-20T06:25:56;101230.25;;;17.29;
46015;BME280;36844;51.898;-0.874;2023-02-20T06:28:22;101231.44;;;17.28;
46015;BME280;36844;51.898;-0.874;2023-02-20T06:30:47;101224.16;;;17.28;
46015;BME280;36844;51.898;-0.874;2023-02-20T06:33:13;101217.56;;;17.29;
46015;BME280;36844;51.898;-0.874;2023-02-20T06:35:38;101215.66;;;17.30;
46015;BME280;36844;51.898;-0.874;2023-02-20T06:38:03;101213.75;;;17.30;
46015;BME280;36844;51.898;-0.874;2023-02-20T06:40:28;101204.53;;;17.31;
46015;BME280;36844;51.898;-0.874;2023-02-20T06:42:54;101207.63;;;17.33;
46015;BME280;36844;51.898;-0.874;2023-02-20T06:45:19;101216.13;;;17.35;
46015;BME280;36844;51.898;-0.874;2023-02-20T06:47:44;101217.63;;;17.36;
46015;BME280;36844;51.898;-0.874;2023-02-20T06:50:09;101204.59;;;17.38;
46015;BME280;36844;51.898;-0.874;2023-02-20T06:52:35;101205.41;;;17.42;
46015;BME280;36844;51.898;-0.874;2023-02-20T06:55:00;101212.72;;;17.45;
46015;BME280;36844;51.898;-0.874;2023-02-20T06:57:25;101218.16;;;17.49;
46015;BME280;36844;51.898;-0.874;2023-02-20T06:59:50;101216.59;;;17.51;
46015;BME280;36844;51.898;-0.874;2023-02-20T07:02:16;101221.66;;;17.56;
46015;BME280;36844;51.898;-0.874;2023-02-20T07:04:42;101210.16;;;17.59;
46015;BME280;36844;51.898;-0.874;2023-02-20T07:07:11;101194.00;;;17.63;
46015;BME280;36844;51.898;-0.874;2023-02-20T07:09:36;101197.16;;;17.68;
46015;BME280;36844;51.898;-0.874;2023-02-20T07:12:01;101196.78;;;17.73;
46015;BME280;36844;51.898;-0.874;2023-02-20T07:14:27;101218.41;;;17.81;
46015;BME280;36844;51.898;-0.874;2023-02-20T07:16:52;101218.44;;;17.84;
46015;BME280;36844;51.898;-0.874;2023-02-20T07:19:17;101217.31;;;17.89;
46015;BME280;36844;51.898;-0.874;2023-02-20T07:21:44;101220.41;;;17.94;
46015;BME280;36844;51.898;-0.874;2023-02-20T07:24:09;101223.91;;;17.98;
46015;BME280;36844;51.898;-0.874;2023-02-20T07:26:35;101236.25;;;18.03;
46015;BME280;36844;51.898;-0.874;2023-02-20T07:29:04;101234.34;;;18.07;
46015;BME280;36844;51.898;-0.874;2023-02-20T07:31:29;101242.09;;;18.12;
46015;BME280;36844;51.898;-0.874;2023-02-20T07:33:55;101240.56;;;18.14;
46015;BME280;36844;51.898;-0.874;2023-02-20T07:36:20;101240.56;;;18.18;
46015;BME280;36844;51.898;-0.874;2023-02-20T07:38:52;101243.72;;;18.20;
46015;BME280;36844;51.898;-0.874;2023-02-20T07:41:19;101247.19;;;18.24;
46015;BME280;36844;51.898;-0.874;2023-02-20T07:43:45;101251.41;;;18.25;
46015;BME280;36844;51.898;-0.874;2023-02-20T07:46:10;101252.63;;;18.27;
46015;BME280;36844;51.898;-0.874;2023-02-20T07:48:35;101258.38;;;18.29;
46015;BME280;36844;51.898;-0.874;2023-02-20T07:51:04;101249.16;;;18.30;
46015;BME280;36844;51.898;-0.874;2023-02-20T07:53:29;101258.38;;;18.33;
46015;BME280;36844;51.898;-0.874;2023-02-20T07:55:54;101259.16;;;18.33;
46015;BME280;36844;51.898;-0.874;2023-02-20T07:58:19;101245.34;;;18.35;
46015;BME280;36844;51.898;-0.874;2023-02-20T08:00:46;101246.09;;;18.35;
46015;BME280;36844;51.898;-0.874;2023-02-20T08:03:11;101256.88;;;18.35;
46015;BME280;36844;51.898;-0.874;2023-02-20T08:05:36;101250.31;;;18.36;
46015;BME280;36844;51.898;-0.874;2023-02-20T08:08:02;101240.31;;;18.37;
46015;BME280;36844;51.898;-0.874;2023-02-20T08:10:27;101239.94;;;18.38;
46015;BME280;36844;51.898;-0.874;2023-02-20T08:12:53;101245.34;;;18.38;
46015;BME280;36844;51.898;-0.874;2023-02-20T08:15:19;101242.22;;;18.40;
46015;BME280;36844;51.898;-0.874;2023-02-20T08:17:44;101236.09;;;18.39;
46015;BME280;36844;51.898;-0.874;2023-02-20T08:20:10;101238.41;;;18.41;
46015;BME280;36844;51.898;-0.874;2023-02-20T08:22:36;101235.72;;;18.41;
46015;BME280;36844;51.898;-0.874;2023-02-20T08:25:01;101239.59;;;18.43;
46015;BME280;36844;51.898;-0.874;2023-02-20T08:27:28;101234.56;;;18.42;
46015;BME280;36844;51.898;-0.874;2023-02-20T08:29:53;101231.50;;;18.43;
46015;BME280;36844;51.898;-0.874;2023-02-20T08:32:19;101231.50;;;18.43;
46015;BME280;36844;51.898;-0.874;2023-02-20T08:34:44;101237.63;;;18.44;
46015;BME280;36844;51.898;-0.874;2023-02-20T08:37:09;101232.25;;;18.44;
46015;BME280;36844;51.898;-0.874;2023-02-20T08:39:35;101227.63;;;18.41;
46015;BME280;36844;51.898;-0.874;2023-02-20T08:42:00;101222.22;;;18.41;
46015;BME280;36844;51.898;-0.874;2023-02-20T08:44:25;101216.81;;;18.41;
46015;BME280;36844;51.898;-0.874;2023-02-20T08:46:51;101220.66;;;18.40;
46015;BME280;36844;51.898;-0.874;2023-02-20T08:49:16;101215.25;;;18.40;
46015;BME280;36844;51.898;-0.874;2023-02-20T08:51:46;101215.25;;;18.40;
46015;BME280;36844;51.898;-0.874;2023-02-20T08:54:11;101222.22;;;18.41;
46015;BME280;36844;51.898;-0.874;2023-02-20T08:56:38;101228.75;;;18.40;
46015;BME280;36844;51.898;-0.874;2023-02-20T08:59:05;101226.06;;;18.40;
46015;BME280;36844;51.898;-0.874;2023-02-20T09:01:31;101226.06;;;18.40;
46015;BME280;36844;51.898;-0.874;2023-02-20T09:03:56;101225.31;;;18.39;
46015;BME280;36844;51.898;-0.874;2023-02-20T09:06:21;101219.13;;;18.39;
46015;BME280;36844;51.898;-0.874;2023-02-20T09:08:49;101223.00;;;18.38;
46015;BME280;36844;51.898;-0.874;2023-02-20T09:11:15;101216.03;;;18.37;
46015;BME280;36844;51.898;-0.874;2023-02-20T09:13:43;101226.81;;;18.37;
46015;BME280;36844;51.898;-0.874;2023-02-20T09:16:09;101225.25;;;18.36;
46015;BME280;36844;51.898;-0.874;2023-02-20T09:18:34;101224.50;;;18.35;
46015;BME280;36844;51.898;-0.874;2023-02-20T09:21:00;101208.31;;;18.35;
46015;BME280;36844;51.898;-0.874;2023-02-20T09:23:25;101209.50;;;18.34;
46015;BME280;36844;51.898;-0.874;2023-02-20T09:25:51;101216.78;;;18.34;
46015;BME280;36844;51.898;-0.874;2023-02-20T09:28:17;101218.72;;;18.33;
46015;BME280;36844;51.898;-0.874;2023-02-20T09:30:42;101231.84;;;18.31;
46015;BME280;36844;51.898;-0.874;2023-02-20T09:33:08;101221.78;;;18.32;
46015;BME280;36844;51.898;-0.874;2023-02-20T09:35:33;101223.75;;;18.31;
46015;BME280;36844;51.898;-0.874;2023-02-20T09:37:58;101224.09;;;18.30;
46015;BME280;36844;51.898;-0.874;2023-02-20T09:40:26;101223.31;;;18.29;
46015;BME280;36844;51.898;-0.874;2023-02-20T09:45:18;101213.31;;;18.30;
46015;BME280;36844;51.898;-0.874;2023-02-20T09:53:03;101216.41;;;18.32;
46015;BME280;36844;51.898;-0.874;2023-02-20T09:55:33;101212.97;;;18.35;
46015;BME280;36844;51.898;-0.874;2023-02-20T09:57:58;101216.03;;;18.37;
46015;BME280;36844;51.898;-0.874;2023-02-20T10:00:31;101214.50;;;18.39;
46015;BME280;36844;51.898;-0.874;2023-02-20T10:03:04;101209.13;;;18.43;
46015;BME280;36844;51.898;-0.874;2023-02-20T10:05:32;101215.31;;;18.47;
46015;BME280;36844;51.898;-0.874;2023-02-20T10:07:58;101199.13;;;18.50;
46015;BME280;36844;51.898;-0.874;2023-02-20T10:10:30;101196.47;;;18.54;
46015;BME280;36844;51.898;-0.874;2023-02-20T10:15:53;101191.84;;;18.61;
46015;BME280;36844;51.898;-0.874;2023-02-20T10:18:29;101196.13;;;18.66;
46015;BME280;36844;51.898;-0.874;2023-02-20T10:21:15;101198.06;;;18.69;
46015;BME280;36844;51.898;-0.874;2023-02-20T10:23:45;101206.16;;;18.72;
46015;BME280;36844;51.898;-0.874;2023-02-20T10:26:17;101201.16;;;18.78;
46015;BME280;36844;51.898;-0.874;2023-02-20T10:28:46;101197.72;;;18.81;
46015;BME280;36844;51.898;-0.874;2023-02-20T10:36:22;101190.78;;;18.91;
46015;BME280;36844;51.898;-0.874;2023-02-20T10:38:51;101193.84;;;18.93;
46015;BME280;36844;51.898;-0.874;2023-02-20T10:41:20;101199.25;;;18.96;
46015;BME280;36844;51.898;-0.874;2023-02-20T10:43:52;101199.25;;;19.00;
46015;BME280;36844;51.898;-0.874;2023-02-20T10:46:25;101187.69;;;19.03;
46015;BME280;36844;51.898;-0.874;2023-02-20T10:48:54;101189.59;;;19.06;
46015;BME280;36844;51.898;-0.874;2023-02-20T10:51:25;101188.09;;;19.08;
46015;BME280;36844;51.898;-0.874;2023-02-20T10:53:56;101191.59;;;19.12;
46015;BME280;36844;51.898;-0.874;2023-02-20T10:56:39;101207.38;;;19.14;
46015;BME280;36844;51.898;-0.874;2023-02-20T10:59:07;101214.34;;;19.15;
46015;BME280;36844;51.898;-0.874;2023-02-20T11:01:38;101224.34;;;19.18;
46015;BME280;36844;51.898;-0.874;2023-02-20T11:04:15;101223.22;;;19.19;
46015;BME280;36844;51.898;-0.874;2023-02-20T11:06:43;101231.31;;;19.19;
46015;BME280;36844;51.898;-0.874;2023-02-20T11:09:09;101224.75;;;19.20;
46015;BME280;36844;51.898;-0.874;2023-02-20T11:14:00;101233.63;;;19.20;
46015;BME280;36844;51.898;-0.874;2023-02-20T11:16:28;101234.38;;;19.21;
46015;BME280;36844;51.898;-0.874;2023-02-20T11:19:06;101220.13;;;19.20;
46015;BME280;36844;51.898;-0.874;2023-02-20T11:21:33;101214.72;;;19.20;
46015;BME280;36844;51.898;-0.874;2023-02-20T11:24:03;101212.78;;;19.21;
46015;BME280;36844;51.898;-0.874;2023-02-20T11:26:41;101203.16;;;19.20;
46015;BME280;36844;51.898;-0.874;2023-02-20T11:31:34;101201.22;;;19.20;
46015;BME280;36844;51.898;-0.874;2023-02-20T11:34:00;101202.75;;;19.21;
46015;BME280;36844;51.898;-0.874;2023-02-20T11:36:26;101202.75;;;19.21;
46015;BME280;36844;51.898;-0.874;2023-02-20T11:39:02;101196.22;;;19.22;
46015;BME280;36844;51.898;-0.874;2023-02-20T11:41:33;101202.75;;;19.21;
46015;BME280;36844;51.898;-0.874;2023-02-20T11:44:20;101196.22;;;19.22;
46015;BME280;36844;51.898;-0.874;2023-02-20T11:46:46;101190.81;;;19.22;
46015;BME280;36844;51.898;-0.874;2023-02-20T11:49:22;101191.56;;;19.23;
46015;BME280;36844;51.898;-0.874;2023-02-20T11:51:48;101180.00;;;19.22;
46015;BME280;36844;51.898;-0.874;2023-02-20T12:01:51;101169.97;;;19.19;
46015;BME280;36844;51.898;-0.874;2023-02-20T12:04:19;101171.13;;;19.18;
46015;BME280;36844;51.898;-0.874;2023-02-20T12:06:44;101169.19;;;19.19;
46015;BME280;36844;51.898;-0.874;2023-02-20T12:09:17;101161.47;;;19.17;
46015;BME280;36844;51.898;-0.874;2023-02-20T12:11:43;101166.88;;;19.17;
46015;BME280;36844;51.898;-0.874;2023-02-20T12:14:12;101166.88;;;19.17;
46015;BME280;36844;51.898;-0.874;2023-02-20T12:19:20;101163.38;;;19.17;
46015;BME280;36844;51.898;-0.874;2023-02-20T12:27:21;101164.94;;;19.14;
46015;BME280;36844;51.898;-0.874;2023-02-20T12:32:52;101155.28;;;19.13;
46015;BME280;36844;51.898;-0.874;2023-02-20T12:40:30;101156.06;;;19.10;
46015;BME280;36844;51.898;-0.874;2023-02-20T12:45:29;101158.41;;;19.08;
46015;BME280;36844;51.898;-0.874;2023-02-20T12:50:41;101138.31;;;19.06;
46015;BME280;36844;51.898;-0.874;2023-02-20T12:53:18;101152.22;;;19.04;
46015;BME280;36844;51.898;-0.874;2023-02-20T12:56:28;101147.19;;;19.03;
46015;BME280;36844;51.898;-0.874;2023-02-20T12:59:08;101146.41;;;19.02;
46015;BME280;36844;51.898;-0.874;2023-02-20T13:01:25;101144.88;;;19.01;
46015;BME280;36844;51.898;-0.874;2023-02-20T13:04:12;101133.69;;;18.99;
46015;BME280;36844;51.898;-0.874;2023-02-20T13:09:23;101126.38;;;18.96;
46015;BME280;36844;51.898;-0.874;2023-02-20T13:11:50;101120.19;;;18.96;
46015;BME280;36844;51.898;-0.874;2023-02-20T13:14:18;101116.72;;;18.95;
46015;BME280;36844;51.898;-0.874;2023-02-20T13:16:46;101117.88;;;18.94;
46015;BME280;36844;51.898;-0.874;2023-02-20T13:19:16;101112.88;;;18.93;
46015;BME280;36844;51.898;-0.874;2023-02-20T13:21:44;101113.25;;;18.91;
46015;BME280;36844;51.898;-0.874;2023-02-20T13:24:11;101112.47;;;18.91;
46015;BME280;36844;51.898;-0.874;2023-02-20T13:26:51;101104.78;;;18.89;
46015;BME280;36844;51.898;-0.874;2023-02-20T13:29:20;101112.09;;;18.89;
46015;BME280;36844;51.898;-0.874;2023-02-20T13:31:55;101110.56;;;18.88;
46015;BME280;36844;51.898;-0.874;2023-02-20T13:36:47;101105.91;;;18.85;
46015;BME280;36844;51.898;-0.874;2023-02-20T13:46:57;101096.28;;;18.80;
46015;BME280;36844;51.898;-0.874;2023-02-20T13:54:51;101085.84;;;18.75;
46015;BME280;36844;51.898;-0.874;2023-02-20T13:57:17;101083.16;;;18.75;
46015;BME280;36844;51.898;-0.874;2023-02-20T13:59:42;101087.78;;;18.74;
46015;BME280;36844;51.898;-0.874;2023-02-20T14:02:15;101088.19;;;18.73;
46015;BME280;36844;51.898;-0.874;2023-02-20T14:07:26;101079.69;;;18.71;
46015;BME280;36844;51.898;-0.874;2023-02-20T14:10:02;101072.78;;;18.70;
46015;BME280;36844;51.898;-0.874;2023-02-20T14:12:28;101068.53;;;18.69;
46015;BME280;36844;51.898;-0.874;2023-02-20T14:14:53;101059.66;;;18.68;
46015;BME280;36844;51.898;-0.874;2023-02-20T14:17:20;101056.59;;;18.66;
46015;BME280;36844;51.898;-0.874;2023-02-20T14:19:47;101067.38;;;18.66;
46015;BME280;36844;51.898;-0.874;2023-02-20T14:22:20;101065.81;;;18.65;
46015;BME280;36844;51.898;-0.874;2023-02-20T14:24:46;101075.84;;;18.65;
46015;BME280;36844;51.898;-0.874;2023-02-20T14:27:28;101066.19;;;18.64;
46015;BME280;36844;51.898;-0.874;2023-02-20T14:30:08;101070.03;;;18.63;
46015;BME280;36844;51.898;-0.874;2023-02-20T14:32:35;101065.81;;;18.62;
46015;BME280;36844;51.898;-0.874;2023-02-20T14:35:07;101052.31;;;18.62;
46015;BME280;36844;51.898;-0.874;2023-02-20T14:37:41;101058.88;;;18.61;
46015;BME280;36844;51.898;-0.874;2023-02-20T14:40:15;101060.00;;;18.60;
46015;BME280;36844;51.898;-0.874;2023-02-20T14:42:44;101066.56;;;18.59;
46015;BME280;36844;51.898;-0.874;2023-02-20T14:45:14;101070.44;;;18.58;
46015;BME280;36844;51.898;-0.874;2023-02-20T14:47:56;101063.47;;;18.57;
46015;BME280;36844;51.898;-0.874;2023-02-20T14:55:25;101046.94;;;18.55;
46015;BME280;36844;51.898;-0.874;2023-02-20T14:57:50;101055.03;;;18.55;
46015;BME280;36844;51.898;-0.874;2023-02-20T15:02:41;101050.78;;;18.54;
46015;BME280;36844;51.898;-0.874;2023-02-20T15:05:08;101049.22;;;18.53;
46015;BME280;36844;51.898;-0.874;2023-02-20T15:07:34;101047.69;;;18.52;
46015;BME280;36844;51.898;-0.874;2023-02-20T15:10:03;101048.84;;;18.51;
46015;BME280;36844;51.898;-0.874;2023-02-20T15:12:34;101040.75;;;18.51;
46015;BME280;36844;51.898;-0.874;2023-02-20T15:15:01;101043.06;;;18.49;